KMLF

Milford Municipal / Ben and Judy Briscoe Field Airport

Milford, Utah, USA
METAR KMLF 230152Z AUTO 34011KT 10SM FEW090 SCT110 13/10 A2995 RMK AO2 RAE10 SLP108 P0000 T01280100
Observed Flight Rules
May-23 @ 01:52 UTC (an hour ago) Visual Flight Rules
Wind Visibility Clouds
340° at 11 knots 10 miles
  • Few at 9,000' AGL
  • Scattered at 11,000' AGL
Temperatures Readings Precipitation
Current 13°C / 55°F
Dewpoint 10°C / 50°F
Humidity 82%
Altimeter 29.95" Hg
Pressure 1010.8 hPa
Elevation 1534
Current Rain 0.005
METAR KMLF 230152Z AUTO 34011KT 10SM FEW090 SCT110 13/10 A2995 RMK AO2 RAE10 SLP108 P0000 T01280100
Observed Flight Rules
May-23 @ 01:52 UTC
(an hour ago)
VFR
Wind Visibility
340° at 11 knots 10 miles
Clouds
  • Few at 9,000' AGL
  • Scattered at 11,000' AGL
Temperature Dewpoint
13°C / 55°F 10°C / 50°F
Humidity Altimeter Pressure
82% 29.95" Hg 1010.8 hPa
Current Rain
0.005